Time;durP1;ratioP1;P1;durP2;ratioP2;P2;SDS_P1;SDS_P2;PMS_P1;PMS_P2;Temp;Humidity;BMP_temperature;BMP_pressure;BME280_temperature;BME280_humidity;BME280_pressure;Samples;Min_cycle;Max_cycle;Signal;HPM_P1;HPM_P2
2022/04/12 00:01:47;;;;;;;5.70;4.70;;;;;;;7.99;45.42;94967.44;5056757;28;20292;-78
2022/04/12 00:04:15;;;;;;;4.93;4.20;;;;;;;7.95;45.37;94979.19;5049207;28;20171;-78
2022/04/12 00:06:40;;;;;;;9.30;4.40;;;;;;;7.89;45.76;94979.88;5051344;28;20430;-78
2022/04/12 00:09:06;;;;;;;5.10;4.70;;;;;;;8.07;45.40;94978.81;5068754;28;20444;-78
2022/04/12 00:11:31;;;;;;;5.07;4.20;;;;;;;7.92;45.27;94976.91;5072696;28;20181;-78
2022/04/12 00:13:57;;;;;;;5.03;3.73;;;;;;;7.67;45.89;94973.59;5062471;28;20562;-78
2022/04/12 00:16:22;;;;;;;6.70;4.23;;;;;;;7.75;45.68;94970.16;5057164;28;20548;-77
2022/04/12 00:19:07;;;;;;;6.97;5.30;;;;;;;7.76;46.17;94971.78;5064840;28;20193;-78
2022/04/12 00:21:34;;;;;;;4.23;3.83;;;;;;;7.70;46.11;94962.00;5048938;28;20191;-78
2022/04/12 00:24:07;;;;;;;5.63;4.53;;;;;;;7.79;45.67;94963.63;5051947;28;20446;-78
2022/04/12 00:26:33;;;;;;;4.57;4.17;;;;;;;7.71;46.25;94954.03;5063380;28;20849;-78
2022/04/12 00:29:02;;;;;;;5.13;4.73;;;;;;;7.81;45.82;94948.63;5064362;28;20460;-77
2022/04/12 00:31:30;;;;;;;5.30;4.80;;;;;;;7.69;45.56;94950.78;5066374;28;20429;-77
2022/04/12 00:33:55;;;;;;;5.60;4.70;;;;;;;7.66;46.00;94952.91;5050365;28;20461;-78
2022/04/12 00:36:21;;;;;;;7.20;4.60;;;;;;;7.86;45.12;94954.16;5066085;28;20440;-77
2022/04/12 00:38:47;;;;;;;4.63;3.43;;;;;;;7.73;45.32;94951.28;5050022;28;20175;-78
2022/04/12 00:41:12;;;;;;;4.57;4.10;;;;;;;7.77;45.71;94952.56;5047544;28;20186;-78
2022/04/12 00:43:38;;;;;;;4.60;4.20;;;;;;;7.82;45.13;94951.06;5053491;28;20182;-78
2022/04/12 00:46:04;;;;;;;9.33;4.80;;;;;;;7.99;44.67;94953.59;5047980;28;20183;-77
2022/04/12 00:48:31;;;;;;;5.00;4.50;;;;;;;8.00;44.61;94947.41;5059224;28;20440;-78
2022/04/12 00:50:57;;;;;;;6.90;4.37;;;;;;;8.04;45.16;94947.88;5055450;28;20449;-78
2022/04/12 00:53:24;;;;;;;5.20;4.70;;;;;;;7.81;45.31;94948.63;5063968;28;20455;-78
2022/04/12 00:55:50;;;;;;;4.47;4.03;;;;;;;7.93;44.49;94951.66;5050714;28;20454;-77
2022/04/12 00:58:16;;;;;;;4.67;4.23;;;;;;;7.98;44.94;94949.38;5048672;28;20507;-78
2022/04/12 01:00:42;;;;;;;5.30;4.90;;;;;;;7.90;44.61;94947.63;5059781;28;20234;-78
2022/04/12 01:03:07;;;;;;;4.90;4.13;;;;;;;7.74;46.00;94942.47;5058925;28;20522;-78
2022/04/12 01:05:35;;;;;;;7.97;4.63;;;;;;;7.86;44.89;94943.72;5051134;28;20178;-77
2022/04/12 01:08:09;;;;;;;4.33;3.93;;;;;;;7.81;45.75;94944.22;5054036;28;20178;-77
2022/04/12 01:10:37;;;;;;;6.87;5.20;;;;;;;7.93;44.83;94942.06;5052988;28;20437;-77
2022/04/12 01:13:02;;;;;;;5.53;4.63;;;;;;;7.52;46.22;94952.63;5062366;28;20413;-77
2022/04/12 01:15:28;;;;;;;5.20;4.70;;;;;;;7.72;45.59;94940.06;5051985;28;20896;-78
2022/04/12 01:17:54;;;;;;;4.43;4.03;;;;;;;7.38;46.57;94943.75;5052636;28;20645;-78
2022/04/12 01:20:29;;;;;;;5.40;4.90;;;;;;;7.47;46.42;94936.69;5054251;28;20193;-78
2022/04/12 01:23:08;;;;;;;5.37;4.90;;;;;;;7.48;47.02;94946.16;5051507;28;20436;-78
2022/04/12 01:25:34;;;;;;;5.43;3.70;;;;;;;7.13;47.67;94935.19;5050569;28;20433;-77
2022/04/12 01:28:00;;;;;;;5.87;4.17;;;;;;;7.24;47.94;94941.81;5060240;28;20474;-77
2022/04/12 01:30:25;;;;;;;6.30;4.87;;;;;;;7.47;47.24;94941.91;5048494;28;20517;-77
2022/04/12 01:32:51;;;;;;;5.17;4.67;;;;;;;7.16;47.96;94945.25;5052005;28;20189;-77
2022/04/12 01:35:16;;;;;;;4.83;4.33;;;;;;;7.07;47.81;94935.81;5051656;28;20225;-77
2022/04/12 01:37:44;;;;;;;5.00;4.13;;;;;;;7.20;48.27;94938.72;5054636;28;20202;-78
2022/04/12 01:40:10;;;;;;;6.50;4.20;;;;;;;6.99;47.91;94935.84;5059026;28;20333;-77
2022/04/12 01:42:39;;;;;;;4.60;4.20;;;;;;;7.00;48.07;94940.88;5048784;28;20429;-77
2022/04/12 01:45:07;;;;;;;4.67;4.17;;;;;;;6.77;48.93;94935.53;5060073;28;20225;-78
2022/04/12 01:47:32;;;;;;;5.30;4.80;;;;;;;6.96;48.58;94938.75;5055733;28;20500;-77
2022/04/12 01:49:58;;;;;;;6.63;4.10;;;;;;;6.75;49.11;94941.88;5056928;28;20503;-78
2022/04/12 01:52:24;;;;;;;8.57;4.40;;;;;;;7.31;47.89;94936.75;5050353;28;20193;-77
2022/04/12 01:54:49;;;;;;;5.00;4.60;;;;;;;7.14;47.99;94936.00;5064364;28;20202;-77
2022/04/12 01:57:15;;;;;;;6.83;4.93;;;;;;;7.12;47.78;94941.34;5053288;28;20196;-77
2022/04/12 01:59:42;;;;;;;5.17;4.67;;;;;;;6.74;48.94;94946.25;5056708;28;20179;-77
2022/04/12 02:02:08;;;;;;;7.53;5.70;;;;;;;7.16;48.29;94934.03;5056907;28;20171;-78
2022/04/12 02:04:34;;;;;;;3.53;3.23;;;;;;;7.00;48.50;94940.88;5054659;28;20417;-77
2022/04/12 02:07:00;;;;;;;5.10;4.57;;;;;;;6.93;48.82;94928.69;5058064;28;20495;-77
2022/04/12 02:09:26;;;;;;;6.93;5.23;;;;;;;7.19;48.27;94928.47;5067638;28;20177;-77
2022/04/12 02:11:55;;;;;;;5.33;4.57;;;;;;;7.20;47.79;94941.31;5066476;28;20429;-78
2022/04/12 02:14:21;;;;;;;4.93;4.43;;;;;;;7.07;48.26;94935.81;5055077;28;20517;-78
2022/04/12 02:16:50;;;;;;;11.13;4.27;;;;;;;7.11;48.23;94924.09;5093024;28;20496;-78
2022/04/12 02:19:16;;;;;;;6.53;5.07;;;;;;;7.27;48.05;94922.47;5056050;28;20421;-78
2022/04/12 02:21:42;;;;;;;6.53;5.60;;;;;;;7.28;47.76;94931.88;5056182;28;20424;-77
2022/04/12 02:24:08;;;;;;;5.80;5.30;;;;;;;7.24;47.80;94926.19;5049562;28;20550;-77
2022/04/12 02:26:34;;;;;;;5.40;4.90;;;;;;;7.30;47.55;94922.13;5055818;28;20171;-77
2022/04/12 02:29:00;;;;;;;6.80;4.80;;;;;;;7.36;48.20;94921.44;5072336;28;20472;-77
2022/04/12 02:31:30;;;;;;;7.60;4.83;;;;;;;7.34;48.17;94926.00;5074231;28;20519;-78
2022/04/12 02:33:56;;;;;;;4.57;4.20;;;;;;;7.08;48.25;94927.06;5074981;28;20459;-78
2022/04/12 02:36:22;;;;;;;7.70;5.70;;;;;;;7.29;48.10;94925.72;5073477;28;20417;-77
2022/04/12 02:38:48;;;;;;;5.40;4.67;;;;;;;6.86;49.47;94927.72;5073610;28;20425;-77
2022/04/12 02:41:14;;;;;;;6.83;4.70;;;;;;;6.97;48.80;94927.41;5074384;28;20182;-77
2022/04/12 02:43:45;;;;;;;4.53;4.20;;;;;;;7.04;48.78;94926.56;5075692;28;20445;-77
2022/04/12 02:46:11;;;;;;;7.10;4.63;;;;;;;6.78;49.11;94929.34;5056063;28;20441;-78
2022/04/12 02:48:36;;;;;;;6.33;5.70;;;;;;;6.99;49.08;94928.03;5054132;28;20418;-78
2022/04/12 02:51:02;;;;;;;7.70;5.07;;;;;;;6.83;48.79;94927.09;5045484;28;20190;-78
2022/04/12 02:53:27;;;;;;;5.70;4.70;;;;;;;7.09;48.52;94927.84;5055941;28;20183;-78
2022/04/12 02:55:53;;;;;;;5.97;5.37;;;;;;;7.00;49.08;94927.03;5056843;28;20432;-78
2022/04/12 02:58:19;;;;;;;7.07;5.97;;;;;;;6.93;48.80;94924.31;5067230;28;20186;-78
2022/04/12 03:00:44;;;;;;;5.57;5.17;;;;;;;7.00;49.26;94924.44;5067175;28;20175;-79
2022/04/12 03:03:11;;;;;;;5.80;5.20;;;;;;;6.98;48.83;94923.78;5052350;28;20529;-78
2022/04/12 03:05:36;;;;;;;5.17;4.77;;;;;;;6.88;48.74;94921.38;5051210;28;20182;-78
2022/04/12 03:08:02;;;;;;;5.90;5.30;;;;;;;6.65;49.52;94926.44;5065462;28;20524;-78
2022/04/12 03:10:27;;;;;;;5.27;4.70;;;;;;;6.83;49.35;94924.47;5065194;28;20206;-78
2022/04/12 03:12:53;;;;;;;5.83;5.33;;;;;;;6.84;48.93;94926.09;5052456;28;20186;-78
2022/04/12 03:15:18;;;;;;;8.00;4.73;;;;;;;6.64;49.92;94930.03;5049525;28;20215;-78
2022/04/12 03:17:44;;;;;;;5.23;4.60;;;;;;;6.78;49.38;94923.34;5054482;28;20198;-77
2022/04/12 03:20:09;;;;;;;6.87;6.17;;;;;;;7.03;48.44;94929.31;5060080;28;20241;-78
2022/04/12 03:22:35;;;;;;;7.70;5.37;;;;;;;6.92;48.94;94927.06;5068722;28;20636;-79
2022/04/12 03:25:01;;;;;;;6.73;5.30;;;;;;;7.09;48.36;94927.84;5062666;28;20175;-78
2022/04/12 03:27:27;;;;;;;5.47;4.97;;;;;;;6.82;48.60;94925.44;5053579;28;20227;-77
2022/04/12 03:29:53;;;;;;;5.13;4.63;;;;;;;6.97;48.54;94930.81;5063213;28;20437;-78
2022/04/12 03:32:18;;;;;;;5.90;5.23;;;;;;;7.00;48.44;94930.47;5047948;28;20432;-77
2022/04/12 03:34:45;;;;;;;5.40;4.87;;;;;;;6.93;48.74;94939.09;5059091;28;20203;-77
2022/04/12 03:37:11;;;;;;;5.90;4.70;;;;;;;6.80;48.84;94935.19;5056127;28;20178;-78
2022/04/12 03:39:36;;;;;;;6.97;5.30;;;;;;;6.93;48.49;94942.50;5069963;28;20497;-77
2022/04/12 03:42:04;;;;;;;5.77;5.10;;;;;;;6.91;48.33;94935.88;5066750;28;20220;-77
2022/04/12 03:44:30;;;;;;;5.47;4.93;;;;;;;7.08;48.26;94937.47;5053058;28;20258;-78
2022/04/12 03:46:55;;;;;;;5.07;4.53;;;;;;;7.00;48.00;94938.28;5053630;28;20441;-78
2022/04/12 03:49:21;;;;;;;4.80;4.40;;;;;;;7.61;46.85;94933.41;5065299;28;20258;-78
2022/04/12 03:51:46;;;;;;;5.90;5.30;;;;;;;7.53;47.24;94933.44;5050978;28;20269;-78
2022/04/12 03:54:12;;;;;;;5.57;4.53;;;;;;;7.38;47.33;94937.69;5053386;28;20249;-78
2022/04/12 03:56:37;;;;;;;5.40;4.90;;;;;;;7.05;47.89;94940.38;5080411;28;20176;-78
2022/04/12 03:59:03;;;;;;;6.53;5.33;;;;;;;7.13;48.24;94944.75;5058255;28;20190;-78
2022/04/12 04:01:28;;;;;;;7.73;6.00;;;;;;;7.13;48.22;94945.59;5063153;28;20183;-79
2022/04/12 04:03:58;;;;;;;6.50;5.70;;;;;;;7.15;47.57;94948.00;5064460;28;20210;-79
2022/04/12 04:06:25;;;;;;;10.37;7.63;;;;;;;7.31;47.87;94952.38;5047820;28;20461;-78
2022/04/12 04:08:50;;;;;;;7.93;6.60;;;;;;;7.62;48.00;94953.25;5056538;28;20520;-78
2022/04/12 04:11:16;;;;;;;7.60;6.80;;;;;;;7.19;49.50;94957.09;5053200;28;20469;-78
2022/04/12 04:13:41;;;;;;;10.53;6.50;;;;;;;7.09;49.67;94949.47;5055339;28;20670;-78
2022/04/12 04:16:07;;;;;;;11.10;7.10;;;;;;;6.90;50.24;94958.44;5061461;28;20178;-77
2022/04/12 04:18:33;;;;;;;8.97;6.60;;;;;;;7.22;49.73;94948.97;5060433;28;20183;-78
2022/04/12 04:20:59;;;;;;;13.67;8.00;;;;;;;7.11;49.34;94955.31;5057739;28;20209;-78
2022/04/12 04:23:24;;;;;;;10.40;8.53;;;;;;;7.26;50.24;94959.88;5053092;28;20449;-79
2022/04/12 04:26:04;;;;;;;9.87;7.60;;;;;;;7.28;49.98;94963.91;5062634;28;20175;-79
2022/04/12 04:28:44;;;;;;;9.73;8.23;;;;;;;7.22;49.94;94962.78;5054708;28;20241;-80
2022/04/12 04:31:09;;;;;;;16.07;9.70;;;;;;;7.29;49.95;94962.97;5049062;28;20980;-79
2022/04/12 04:33:35;;;;;;;17.30;10.50;;;;;;;7.42;49.88;94962.44;5086674;28;20562;-80
2022/04/12 04:36:03;;;;;;;17.97;11.57;;;;;;;7.58;49.74;94972.78;5053526;28;20209;-80
2022/04/12 04:38:31;;;;;;;15.23;10.23;;;;;;;7.58;49.11;94975.41;5048469;28;20174;-80
2022/04/12 04:40:57;;;;;;;12.70;8.13;;;;;;;7.48;49.30;94977.41;5067462;28;20440;-79
2022/04/12 04:43:23;;;;;;;12.90;9.50;;;;;;;7.47;50.32;94978.34;5067240;28;20555;-80
2022/04/12 04:45:50;;;;;;;19.50;9.53;;;;;;;7.44;50.36;94976.09;5074072;28;20421;-80
2022/04/12 04:48:15;;;;;;;20.10;9.17;;;;;;;7.59;50.17;94984.06;5061657;28;20437;-80
2022/04/12 04:50:42;;;;;;;13.00;9.70;;;;;;;7.68;50.12;94987.44;5055560;28;20531;-81
2022/04/12 04:53:11;;;;;;;12.50;9.10;;;;;;;7.78;49.64;94990.66;5069300;28;20186;-79
2022/04/12 04:55:47;;;;;;;7.83;7.10;;;;;;;7.96;48.39;94990.41;5069349;28;20823;-80
2022/04/12 04:58:16;;;;;;;14.90;9.10;;;;;;;8.10;48.18;94989.72;5085542;28;20436;-80
2022/04/12 05:00:52;;;;;;;14.20;9.47;;;;;;;8.06;49.05;94988.41;5079195;28;20436;-80
2022/04/12 05:03:18;;;;;;;18.00;10.60;;;;;;;7.98;48.66;94986.66;5057673;28;20512;-80
2022/04/12 05:05:46;;;;;;;14.30;8.90;;;;;;;8.21;47.97;94980.69;5050722;28;20446;-80
2022/04/12 05:08:12;;;;;;;11.10;8.70;;;;;;;8.39;47.07;94983.03;5064768;28;20190;-80
2022/04/12 05:10:38;;;;;;;15.30;9.27;;;;;;;8.42;47.81;94982.72;5066166;28;20429;-81
2022/04/12 05:13:04;;;;;;;11.17;9.40;;;;;;;7.94;48.50;94990.59;5056870;28;20191;-80
2022/04/12 05:15:30;;;;;;;16.60;10.30;;;;;;;8.73;47.17;94987.91;5052094;28;20569;-81
2022/04/12 05:17:56;;;;;;;15.87;8.20;;;;;;;8.44;46.33;94990.38;5060090;28;20229;-79
2022/04/12 05:20:24;;;;;;;10.43;8.70;;;;;;;7.94;45.99;94985.38;5059570;28;20446;-79
2022/04/12 05:22:50;;;;;;;15.37;8.30;;;;;;;8.08;45.94;94981.25;5060395;28;20185;-79
2022/04/12 05:25:16;;;;;;;8.07;7.30;;;;;;;8.16;46.21;94988.22;5051623;28;20441;-80
2022/04/12 05:27:47;;;;;;;16.33;8.90;;;;;;;8.47;45.05;94984.81;5064894;28;20288;-79
2022/04/12 05:30:13;;;;;;;17.10;9.10;;;;;;;9.00;43.90;94988.34;5048014;28;20167;-80
2022/04/12 05:32:43;;;;;;;15.60;9.50;;;;;;;8.88;43.85;94981.91;5055187;28;20402;-79
2022/04/12 05:35:14;;;;;;;14.20;8.30;;;;;;;9.19;44.40;94990.47;5040801;28;20500;-80
2022/04/12 05:37:56;;;;;;;13.87;9.23;;;;;;;9.49;43.14;94981.88;5057945;28;20512;-79
2022/04/12 05:40:33;;;;;;;13.30;8.27;;;;;;;9.82;41.52;94986.75;5057316;28;20449;-78
2022/04/12 05:42:59;;;;;;;20.93;9.63;;;;;;;9.75;42.61;94976.19;5068051;28;20416;-79
2022/04/12 05:45:28;;;;;;;14.40;10.00;;;;;;;9.88;42.51;94981.59;5090908;28;20515;-79
2022/04/12 05:47:57;;;;;;;16.90;10.70;;;;;;;9.16;42.97;94972.56;5080439;28;20430;-79
2022/04/12 05:50:27;;;;;;;16.93;10.00;;;;;;;9.71;42.60;94977.53;5073156;28;20450;-78
2022/04/12 05:52:59;;;;;;;13.03;9.47;;;;;;;10.01;41.62;94969.69;5073303;28;20417;-79
2022/04/12 05:55:28;;;;;;;12.27;10.60;;;;;;;10.16;41.55;94966.03;5073707;28;20503;-79
2022/04/12 05:58:04;;;;;;;16.20;10.43;;;;;;;9.65;41.83;94970.44;5073746;28;20436;-78
2022/04/12 06:00:34;;;;;;;10.57;9.37;;;;;;;10.31;40.42;94970.47;5073197;28;20432;-80
2022/04/12 06:03:02;;;;;;;13.67;12.27;;;;;;;9.99;41.60;94974.28;5064164;28;20441;-78
2022/04/12 06:05:30;;;;;;;22.90;10.43;;;;;;;10.68;40.55;94985.16;5054028;28;20461;-79
2022/04/12 06:08:07;;;;;;;13.60;8.57;;;;;;;10.50;39.32;94982.16;5056932;28;20496;-79
2022/04/12 06:10:34;;;;;;;6.90;5.53;;;;;;;10.55;38.31;94983.22;5071342;28;20413;-79
2022/04/12 06:13:03;;;;;;;10.60;6.00;;;;;;;10.73;38.40;94982.78;5056554;28;20457;-79
2022/04/12 06:15:41;;;;;;;6.83;6.23;;;;;;;11.28;37.80;94979.63;5074471;28;20480;-79
2022/04/12 06:18:07;;;;;;;5.67;4.73;;;;;;;11.48;36.10;94987.66;5063205;28;20438;-79
2022/04/12 06:20:33;;;;;;;11.03;7.63;;;;;;;10.97;38.18;94993.88;5046660;28;20430;-80
2022/04/12 06:22:58;;;;;;;13.93;11.27;;;;;;;11.04;38.98;95000.00;5074203;28;20487;-80
2022/04/12 06:25:24;;;;;;;11.67;10.50;;;;;;;10.90;39.40;95000.88;5052345;28;20708;-79
2022/04/12 06:27:50;;;;;;;17.23;12.00;;;;;;;9.97;41.52;95003.22;5061765;28;20222;-79
2022/04/12 06:30:21;;;;;;;15.50;12.17;;;;;;;10.90;40.19;94998.25;5102501;28;20162;-79
2022/04/12 06:32:47;;;;;;;12.00;10.73;;;;;;;11.29;37.92;94996.97;5060422;28;20437;-80
2022/04/12 06:35:13;;;;;;;9.90;8.00;;;;;;;11.63;37.47;94998.00;5066025;28;20506;-79
2022/04/12 06:37:41;;;;;;;8.20;7.40;;;;;;;11.50;37.11;94996.94;5068817;28;20186;-80
2022/04/12 06:40:09;;;;;;;6.53;5.90;;;;;;;11.56;35.96;94991.94;5067123;28;20463;-80
2022/04/12 06:42:35;;;;;;;25.30;10.87;;;;;;;11.69;37.66;94999.88;5063900;28;20500;-79
2022/04/12 06:45:01;;;;;;;10.00;7.77;;;;;;;11.31;37.58;95005.47;5063911;28;20927;-79
2022/04/12 06:47:26;;;;;;;17.23;8.73;;;;;;;12.00;37.75;95006.53;5058501;28;20452;-79
2022/04/12 06:49:53;;;;;;;12.10;8.33;;;;;;;12.34;36.41;95002.25;5048138;28;20418;-79
2022/04/12 06:52:21;;;;;;;7.57;6.97;;;;;;;12.32;35.47;95001.66;5059993;28;20178;-80
2022/04/12 06:54:47;;;;;;;7.13;5.70;;;;;;;12.57;34.79;95000.09;5068187;28;20448;-80
2022/04/12 06:57:13;;;;;;;7.33;4.97;;;;;;;12.46;33.60;94998.03;5065019;28;20445;-79
2022/04/12 06:59:39;;;;;;;3.87;3.40;;;;;;;12.40;33.32;94993.59;5048326;28;20414;-79
2022/04/12 07:02:05;;;;;;;4.67;4.00;;;;;;;11.96;34.61;94998.25;5057100;28;20459;-80
2022/04/12 07:04:31;;;;;;;3.77;3.37;;;;;;;11.71;33.71;94996.06;5059919;28;20186;-80
2022/04/12 07:06:57;;;;;;;8.20;3.73;;;;;;;11.68;34.80;94990.38;5058663;28;20433;-79
2022/04/12 07:09:27;;;;;;;4.43;4.00;;;;;;;12.08;34.19;94995.88;5091144;28;20422;-80
2022/04/12 07:11:59;;;;;;;4.60;3.70;;;;;;;11.78;34.20;94993.50;5060642;28;20912;-78
2022/04/12 07:14:28;;;;;;;4.50;4.10;;;;;;;12.05;33.14;94988.41;5094901;28;20521;-79
2022/04/12 07:16:59;;;;;;;4.33;3.93;;;;;;;12.08;33.66;94986.22;5057027;28;20448;-79
2022/04/12 07:19:25;;;;;;;3.10;2.90;;;;;;;11.58;33.73;94987.31;5055331;28;20441;-79
2022/04/12 07:21:54;;;;;;;2.93;2.73;;;;;;;12.18;32.47;94988.47;5061281;28;20531;-78
2022/04/12 07:24:19;;;;;;;5.27;3.43;;;;;;;11.96;33.07;95002.69;5055188;28;20426;-79
2022/04/12 07:26:46;;;;;;;3.10;2.80;;;;;;;12.09;32.10;94982.56;5051941;28;20543;-79
2022/04/12 07:29:15;;;;;;;4.53;2.83;;;;;;;12.03;32.46;94990.41;5059835;28;20295;-79
2022/04/12 07:31:45;;;;;;;5.97;3.37;;;;;;;11.78;33.56;94995.28;5057860;28;20431;-78
2022/04/12 07:34:14;;;;;;;4.93;3.37;;;;;;;12.19;31.36;94992.69;5052701;28;20961;-78
2022/04/12 07:36:43;;;;;;;5.80;3.70;;;;;;;12.05;31.88;94989.22;5058426;28;20526;-79
2022/04/12 07:39:09;;;;;;;3.80;3.50;;;;;;;12.51;31.72;94995.66;5053453;28;20456;-79
2022/04/12 07:41:35;;;;;;;1.97;1.70;;;;;;;12.35;31.13;94996.00;5057940;28;20428;-78
2022/04/12 07:44:03;;;;;;;3.30;2.57;;;;;;;12.79;30.81;94992.09;5058272;28;20476;-78
2022/04/12 07:46:34;;;;;;;3.30;2.60;;;;;;;12.67;30.33;94984.78;5056553;28;20179;-78
2022/04/12 07:49:02;;;;;;;4.33;2.73;;;;;;;12.20;30.79;94981.22;5060195;28;20421;-79
2022/04/12 07:51:33;;;;;;;2.43;2.27;;;;;;;12.22;30.50;94986.28;5082889;28;20448;-77
2022/04/12 07:54:07;;;;;;;3.33;2.63;;;;;;;12.76;29.99;94984.59;5053282;28;20541;-79
2022/04/12 07:56:39;;;;;;;2.67;2.47;;;;;;;12.55;30.40;94977.69;5057282;28;20427;-79
2022/04/12 07:59:09;;;;;;;4.60;2.70;;;;;;;12.37;31.43;94984.31;5054384;28;20505;-79
2022/04/12 08:01:35;;;;;;;3.20;2.90;;;;;;;12.93;30.83;94985.84;5053858;28;20444;-80
2022/04/12 08:04:07;;;;;;;2.77;2.57;;;;;;;13.19;29.28;94984.25;5055602;28;20410;-78
2022/04/12 08:06:32;;;;;;;4.30;2.80;;;;;;;13.36;29.40;94979.44;5072795;28;20202;-78
2022/04/12 08:09:00;;;;;;;3.30;3.10;;;;;;;13.43;29.29;94983.69;5057325;28;20549;-78
2022/04/12 08:11:50;;;;;;;4.20;3.37;;;;;;;14.43;28.28;94980.75;5063668;28;20186;-79
2022/04/12 08:14:21;;;;;;;2.50;2.30;;;;;;;13.46;29.01;94967.47;5065977;28;20460;-78
2022/04/12 08:16:52;;;;;;;7.83;3.00;;;;;;;12.87;29.34;94957.75;5063969;28;20958;-79
2022/04/12 08:19:25;;;;;;;3.23;2.90;;;;;;;12.84;30.06;94968.66;5075431;28;20528;-78
2022/04/12 08:21:59;;;;;;;3.67;2.80;;;;;;;13.17;29.17;94967.88;5061262;28;20517;-78
2022/04/12 08:24:31;;;;;;;4.03;2.87;;;;;;;13.86;28.74;94964.75;5065863;28;20437;-78
2022/04/12 08:26:57;;;;;;;7.77;3.00;;;;;;;13.27;29.40;94973.53;5052367;28;20426;-78
2022/04/12 08:29:25;;;;;;;3.20;2.90;;;;;;;13.88;27.59;94961.94;5052569;28;20521;-79
2022/04/12 08:31:50;;;;;;;5.47;3.20;;;;;;;14.12;28.28;94952.56;5060000;28;20647;-79
2022/04/12 08:34:24;;;;;;;3.90;2.50;;;;;;;14.37;28.30;94955.28;5062288;28;20468;-79
2022/04/12 08:36:51;;;;;;;10.13;3.80;;;;;;;14.32;28.80;94962.97;5058432;28;20174;-80
2022/04/12 08:39:17;;;;;;;5.23;3.23;;;;;;;14.19;28.56;94955.16;5057751;28;20422;-79
2022/04/12 08:41:43;;;;;;;5.10;4.00;;;;;;;14.86;27.41;94953.00;5056865;28;20449;-79
2022/04/12 08:44:09;;;;;;;5.20;3.27;;;;;;;15.11;27.67;94944.31;5056705;28;20183;-78
2022/04/12 08:46:38;;;;;;;7.67;3.47;;;;;;;14.20;28.22;94933.09;5054284;28;20436;-79
2022/04/12 08:49:06;;;;;;;7.40;3.40;;;;;;;14.45;27.99;94935.78;5053750;28;20170;-78
2022/04/12 08:51:36;;;;;;;3.90;3.53;;;;;;;15.09;27.38;94943.72;5050926;28;20548;-78
2022/04/12 08:54:03;;;;;;;2.90;2.00;;;;;;;14.33;27.93;94929.59;5060787;28;20467;-78
2022/04/12 08:56:31;;;;;;;4.17;3.40;;;;;;;14.61;28.98;94943.22;5051634;28;20487;-78
2022/04/12 08:59:00;;;;;;;3.70;3.30;;;;;;;14.75;27.11;94943.16;5069074;28;20780;-79
2022/04/12 09:01:28;;;;;;;3.27;2.90;;;;;;;15.47;26.69;94929.59;5064716;28;20432;-78
2022/04/12 09:03:54;;;;;;;4.57;3.17;;;;;;;15.93;25.81;94938.91;5073338;28;20480;-80
2022/04/12 09:06:20;;;;;;;4.60;3.20;;;;;;;15.91;25.78;94933.84;5058429;28;20433;-79
2022/04/12 09:08:46;;;;;;;3.40;3.10;;;;;;;16.58;25.03;94925.09;5051645;28;20243;-79
2022/04/12 09:11:15;;;;;;;4.80;2.73;;;;;;;16.24;25.40;94923.91;5061602;28;20294;-78
2022/04/12 09:13:59;;;;;;;2.60;2.40;;;;;;;15.67;26.48;94914.41;5056686;28;20183;-79
2022/04/12 09:16:28;;;;;;;2.30;2.10;;;;;;;15.06;27.21;94912.50;5055683;28;20514;-78
2022/04/12 09:18:55;;;;;;;3.20;2.90;;;;;;;15.39;27.64;94920.94;5052688;28;20932;-78
2022/04/12 09:21:27;;;;;;;3.97;2.27;;;;;;;16.33;26.18;94917.28;5084855;28;20430;-79
2022/04/12 09:24:05;;;;;;;4.13;2.73;;;;;;;16.51;25.16;94909.34;5053879;28;20500;-79
2022/04/12 09:26:37;;;;;;;4.13;2.13;;;;;;;17.35;24.09;94911.91;5065346;28;20428;-79
2022/04/12 09:29:15;;;;;;;3.40;3.10;;;;;;;16.51;25.30;94911.97;5046232;28;20488;-79
2022/04/12 09:32:01;;;;;;;2.80;2.60;;;;;;;15.76;26.61;94907.84;5054967;28;20426;-79
2022/04/12 09:34:28;;;;;;;2.80;2.60;;;;;;;16.37;26.24;94913.16;5045210;28;20458;-80
2022/04/12 09:36:54;;;;;;;4.33;2.87;;;;;;;15.72;26.13;94900.53;5048351;28;20426;-78
2022/04/12 09:39:20;;;;;;;4.37;2.53;;;;;;;15.12;27.53;94890.56;5054460;28;20425;-78
2022/04/12 09:41:51;;;;;;;2.40;2.20;;;;;;;14.54;27.29;94891.59;5058385;28;20194;-80
2022/04/12 09:44:19;;;;;;;5.23;2.23;;;;;;;15.14;27.45;94891.97;5072152;28;20604;-78
2022/04/12 09:46:49;;;;;;;3.13;1.23;;;;;;;15.00;26.38;94878.09;5056943;28;20426;-78
2022/04/12 09:49:18;;;;;;;2.90;2.00;;;;;;;14.86;27.77;94889.78;5051838;28;20429;-79
2022/04/12 09:51:49;;;;;;;8.07;2.37;;;;;;;15.47;27.00;94871.59;5064234;28;20419;-79
2022/04/12 09:54:22;;;;;;;2.17;1.80;;;;;;;15.48;28.07;94868.72;5050941;28;20971;-79
2022/04/12 09:56:49;;;;;;;2.30;2.10;;;;;;;16.30;26.95;94865.75;5092757;28;20433;-79
2022/04/12 09:59:20;;;;;;;2.87;2.53;;;;;;;16.05;26.59;94868.50;5055689;28;20469;-79
2022/04/12 10:01:46;;;;;;;2.30;1.70;;;;;;;16.55;26.74;94862.94;5043526;28;20418;-79
2022/04/12 10:04:36;;;;;;;2.73;2.10;;;;;;;17.48;25.38;94852.69;5054857;28;20488;-79
2022/04/12 10:07:06;;;;;;;1.90;1.70;;;;;;;17.34;25.39;94854.78;5045748;28;20182;-78
2022/04/12 10:09:43;;;;;;;1.70;1.60;;;;;;;17.30;24.89;94858.09;5047205;28;20434;-79
2022/04/12 10:12:13;;;;;;;2.70;1.87;;;;;;;17.07;25.95;94837.75;5055679;28;20442;-79
2022/04/12 10:14:45;;;;;;;1.70;1.60;;;;;;;16.77;25.73;94836.00;5049821;28;20452;-79
2022/04/12 10:17:17;;;;;;;3.90;2.80;;;;;;;16.76;26.31;94842.31;5054946;28;20420;-79
2022/04/12 10:19:50;;;;;;;3.83;2.03;;;;;;;16.77;25.69;94843.94;5064038;28;20440;-79
2022/04/12 10:22:26;;;;;;;4.57;2.57;;;;;;;17.06;25.29;94828.22;5061278;28;20791;-79
2022/04/12 10:24:55;;;;;;;3.23;2.23;;;;;;;17.51;25.69;94827.59;5062261;28;20416;-79
2022/04/12 10:27:31;;;;;;;2.10;1.90;;;;;;;17.55;24.83;94821.63;5063961;28;20475;-79
2022/04/12 10:30:15;;;;;;;2.30;1.73;;;;;;;17.40;26.16;94817.84;5051148;28;20416;-80
2022/04/12 10:33:00;;;;;;;3.83;2.10;;;;;;;17.76;25.46;94809.59;5056581;28;20505;-79
2022/04/12 10:35:25;;;;;;;2.57;1.93;;;;;;;18.16;24.33;94820.44;5044355;28;20475;-79
2022/04/12 10:37:56;;;;;;;5.37;2.00;;;;;;;18.19;24.43;94810.13;5061190;28;20492;-79
2022/04/12 10:40:26;;;;;;;4.30;1.63;;;;;;;19.22;23.47;94812.63;5060691;28;20673;-79
2022/04/12 10:42:55;;;;;;;3.47;2.37;;;;;;;19.20;22.59;94801.44;5060661;28;20425;-79
2022/04/12 10:45:33;;;;;;;4.90;1.83;;;;;;;19.53;22.79;94791.78;5063519;28;20963;-79
2022/04/12 10:48:07;;;;;;;1.70;1.60;;;;;;;19.15;23.21;94800.56;5060573;28;20418;-79
2022/04/12 10:50:43;;;;;;;2.37;2.17;;;;;;;17.56;25.61;94798.59;5052097;28;20424;-80
2022/04/12 10:53:09;;;;;;;2.00;1.50;;;;;;;17.27;26.06;94798.53;5050380;28;20447;-79
2022/04/12 10:55:45;;;;;;;2.03;1.93;;;;;;;17.54;25.28;94795.38;5050924;28;20470;-80
2022/04/12 10:58:33;;;;;;;10.13;2.77;;;;;;;18.47;24.53;94797.91;5057754;28;20167;-80
2022/04/12 11:00:59;;;;;;;2.30;1.50;;;;;;;17.64;25.34;94786.84;5063758;28;20520;-79
2022/04/12 11:03:40;;;;;;;1.93;1.50;;;;;;;17.65;26.10;94791.91;5049114;28;20422;-79
2022/04/12 11:06:16;;;;;;;2.40;1.60;;;;;;;17.20;26.17;94787.25;5044889;28;20492;-78
2022/04/12 11:08:46;;;;;;;2.50;1.77;;;;;;;18.14;25.48;94772.97;5048061;28;20429;-80
2022/04/12 11:11:16;;;;;;;2.53;2.33;;;;;;;17.56;26.01;94772.94;5049874;28;20418;-79
2022/04/12 11:13:42;;;;;;;2.30;1.40;;;;;;;15.91;27.22;94777.31;5048743;28;20818;-79
2022/04/12 11:16:12;;;;;;;2.47;2.10;;;;;;;16.87;27.62;94770.16;5058833;28;20418;-78
2022/04/12 11:18:53;;;;;;;2.37;1.90;;;;;;;16.83;26.90;94774.31;5055431;28;20270;-79
2022/04/12 11:21:22;;;;;;;3.03;1.50;;;;;;;16.67;27.37;94769.66;5060849;28;20421;-79
2022/04/12 11:24:00;;;;;;;3.13;1.50;;;;;;;16.90;26.32;94767.06;5067649;28;20417;-79
2022/04/12 11:26:49;;;;;;;3.03;1.40;;;;;;;17.09;26.53;94761.63;5077485;28;20422;-79
2022/04/12 11:29:22;;;;;;;1.77;1.67;;;;;;;18.19;25.31;94764.31;5064436;28;20474;-79
2022/04/12 11:31:55;;;;;;;1.63;1.53;;;;;;;18.24;25.25;94756.47;5064249;28;20418;-79
2022/04/12 11:34:23;;;;;;;3.40;1.80;;;;;;;17.29;25.31;94756.78;5061318;28;20770;-78
2022/04/12 11:36:51;;;;;;;2.10;1.90;;;;;;;18.17;24.35;94745.19;5085625;28;20458;-79
2022/04/12 11:39:31;;;;;;;1.83;1.30;;;;;;;17.71;24.60;94738.00;5066546;28;20440;-79
2022/04/12 11:42:03;;;;;;;1.50;1.40;;;;;;;18.34;23.91;94746.00;5060180;28;20418;-79
2022/04/12 11:44:34;;;;;;;1.77;1.67;;;;;;;18.04;24.49;94741.81;5062946;28;20948;-79